LFRN 220230Z AUTO 25010KT CAVOK 10/07 Q1019 NOSIG

ElémentsDécodage
LFRN Station météo située sur l'aérodrome de RENNES Saint-Jacques
220230Z émis le 22 du mois à 02h30 UTC
AUTO Bulletin édité par un automate
25010KT vent du 250°, 10 noeuds
CAVOK Ceiling And Visibility OK
- Visibilité de 10 Km ou plus
- Pas de nuage au-dessous de 1500m ou au-dessous de l'altitude minimale du secteur la plus élevée (si>1500m) et absence de CB
- pas de temps présent significatif
10/07 température 10°C, point de rosée 07°C
 soit une humidité relative de 82%
Q1019 la pression au niveau de la mer (QNH) est de 1019 hPa
NOSIG Pas de changement significatif prévu au cours des deux heures suivant l'heure de l'observation